Time;durP1;ratioP1;P1;durP2;ratioP2;P2;SDS_P1;SDS_P2;PMS_P1;PMS_P2;Temp;Humidity;BMP_temperature;BMP_pressure;BME280_temperature;BME280_humidity;BME280_pressure;Samples;Min_cycle;Max_cycle;Signal;HPM_P1;HPM_P2
2022/03/24 00:00:32;;;;;;;;;;;;;;;7.88;100.00;100445.13;5109432;28;19924;-79
2022/03/24 00:02:59;;;;;;;;;;;;;;;7.79;100.00;100444.56;5109402;28;20014;-79
2022/03/24 00:05:27;;;;;;;;;;;;;;;7.91;100.00;100441.59;5095400;28;19947;-78
2022/03/24 00:07:55;;;;;;;;;;;;;;;7.93;100.00;100447.59;5096767;28;19924;-79
2022/03/24 00:10:23;;;;;;;;;;;;;;;7.80;100.00;100448.97;5095691;28;20004;-79
2022/03/24 00:12:55;;;;;;;;;;;;;;;7.85;100.00;100442.28;5094855;28;19928;-79
2022/03/24 00:15:23;;;;;;;;;;;;;;;7.71;100.00;100440.06;5093409;28;19947;-79
2022/03/24 00:17:50;;;;;;;;;;;;;;;7.53;100.00;100433.38;5095303;28;20375;-78
2022/03/24 00:20:17;;;;;;;;;;;;;;;7.67;100.00;100441.97;5078376;28;19924;-79
2022/03/24 00:22:44;;;;;;;;;;;;;;;7.60;100.00;100432.72;5093191;28;20375;-79
2022/03/24 00:25:11;;;;;;;;;;;;;;;7.38;100.00;100437.91;5080950;28;20432;-78
2022/03/24 00:27:40;;;;;;;;;;;;;;;7.39;100.00;100439.50;5078668;28;19924;-79
2022/03/24 00:30:08;;;;;;;;;;;;;;;7.56;100.00;100431.84;5095225;28;20014;-79
2022/03/24 00:32:35;;;;;;;;;;;;;;;7.53;100.00;100433.38;5095051;28;20011;-79
2022/03/24 00:35:03;;;;;;;;;;;;;;;7.45;100.00;100428.06;5096453;28;20302;-79
2022/03/24 00:37:31;;;;;;;;;;;;;;;7.39;100.00;100428.38;5095956;28;20491;-79
2022/03/24 00:40:06;;;;;;;;;;;;;;;7.34;100.00;100437.03;5094790;28;19971;-79
2022/03/24 00:42:35;;;;;;;;;;;;;;;7.41;100.00;100430.78;5094845;28;20351;-79
2022/03/24 00:45:06;;;;;;;;;;;;;;;7.38;100.00;100437.09;5094898;28;19977;-79
2022/03/24 00:47:35;;;;;;;;;;;;;;;7.32;100.00;100438.56;5094829;28;20325;-79
2022/03/24 00:50:07;;;;;;;;;;;;;;;7.28;100.00;100430.16;5095916;28;19941;-79
2022/03/24 00:52:41;;;;;;;;;;;;;;;7.22;100.00;100430.84;5077440;28;19924;-79
2022/03/24 00:55:15;;;;;;;;;;;;;;;7.26;100.00;100432.50;5095745;28;20367;-79
2022/03/24 00:57:43;;;;;;;;;;;;;;;7.30;100.00;100429.78;5095844;28;20363;-79
2022/03/24 01:00:15;;;;;;;;;;;;;;;7.27;100.00;100436.06;5094514;28;19924;-78
2022/03/24 01:02:44;;;;;;;;;;;;;;;7.17;100.00;100428.34;5077711;28;20045;-79
2022/03/24 01:05:15;;;;;;;;;;;;;;;7.10;100.00;100422.66;5077361;28;20030;-79
2022/03/24 01:07:43;;;;;;;;;;;;;;;6.90;100.00;100424.66;5095752;28;19924;-79
2022/03/24 01:10:12;;;;;;;;;;;;;;;6.86;100.00;100422.97;5077236;28;20363;-79
2022/03/24 01:12:42;;;;;;;;;;;;;;;6.94;100.00;100427.50;5094221;28;20366;-79
2022/03/24 01:15:11;;;;;;;;;;;;;;;6.98;100.00;100420.03;5076267;28;20011;-79
2022/03/24 01:17:39;;;;;;;;;;;;;;;7.00;100.00;100418.50;5081301;28;19924;-79
2022/03/24 01:20:08;;;;;;;;;;;;;;;7.00;100.00;100414.91;5073923;28;20294;-79
2022/03/24 01:22:36;;;;;;;;;;;;;;;6.95;100.00;100415.22;5073859;28;19933;-79
2022/03/24 01:25:05;;;;;;;;;;;;;;;6.96;100.00;100414.03;5074654;28;19931;-79
2022/03/24 01:27:32;;;;;;;;;;;;;;;6.89;100.00;100419.47;5072311;28;19967;-79
2022/03/24 01:30:00;;;;;;;;;;;;;;;6.63;100.00;100410.97;5073516;28;19932;-79
2022/03/24 01:32:27;;;;;;;;;;;;;;;6.54;100.00;100407.63;5074691;28;20378;-79
2022/03/24 01:34:55;;;;;;;;;;;;;;;6.66;100.00;100410.25;5073556;28;19954;-79
2022/03/24 01:37:23;;;;;;;;;;;;;;;6.73;100.00;100404.84;5065826;28;19924;-79
2022/03/24 01:39:51;;;;;;;;;;;;;;;6.72;100.00;100403.22;5093271;28;19927;-79
2022/03/24 01:42:18;;;;;;;;;;;;;;;6.70;100.00;100400.81;5094731;28;20317;-79
2022/03/24 01:44:47;;;;;;;;;;;;;;;6.51;100.00;100395.25;5087661;28;19946;-79
2022/03/24 01:47:15;;;;;;;;;;;;;;;6.59;100.00;100404.53;5093431;28;19924;-79
2022/03/24 01:49:44;;;;;;;;;;;;;;;6.57;100.00;100395.78;5093539;28;20343;-79
2022/03/24 01:52:14;;;;;;;;;;;;;;;6.59;100.00;100399.78;5093259;28;20393;-79
2022/03/24 01:54:53;;;;;;;;;;;;;;;6.57;100.00;100399.34;5076534;28;19924;-79
2022/03/24 01:57:21;;;;;;;;;;;;;;;6.54;100.00;100402.06;5093438;28;19928;-79
2022/03/24 01:59:49;;;;;;;;;;;;;;;6.53;100.00;100387.38;5094661;28;19930;-79
2022/03/24 02:02:16;;;;;;;;;;;;;;;6.53;100.00;100392.09;5086822;28;19924;-79
2022/03/24 02:04:43;;;;;;;;;;;;;;;6.39;100.00;100394.59;5073039;28;20464;-79
2022/03/24 02:07:14;;;;;;;;;;;;;;;6.23;100.00;100386.31;5072664;28;19974;-79
2022/03/24 02:09:41;;;;;;;;;;;;;;;6.21;100.00;100387.84;5056319;28;19931;-79
2022/03/24 02:12:12;;;;;;;;;;;;;;;6.08;100.00;100394.69;5072846;28;19993;-79
2022/03/24 02:14:40;;;;;;;;;;;;;;;5.96;100.00;100392.03;5072898;28;19924;-79
2022/03/24 02:17:08;;;;;;;;;;;;;;;6.05;100.00;100389.84;5072922;28;19924;-79
2022/03/24 02:19:36;;;;;;;;;;;;;;;6.14;100.00;100391.28;5072727;28;19931;-79
2022/03/24 02:22:08;;;;;;;;;;;;;;;6.23;100.00;100391.88;5072552;28;19974;-79
2022/03/24 02:24:37;;;;;;;;;;;;;;;6.29;100.00;100395.97;5072856;28;19935;-79
2022/03/24 02:27:04;;;;;;;;;;;;;;;6.32;100.00;100391.66;5073607;28;19924;-79
2022/03/24 02:29:32;;;;;;;;;;;;;;;6.28;100.00;100385.22;5073889;28;19925;-79
2022/03/24 02:31:59;;;;;;;;;;;;;;;6.23;100.00;100391.06;5073930;28;19946;-79
2022/03/24 02:34:37;;;;;;;;;;;;;;;6.24;100.00;100382.38;5073734;28;20345;-80
2022/03/24 02:37:07;;;;;;;;;;;;;;;6.04;100.00;100389.06;5073506;28;19978;-80
2022/03/24 02:39:35;;;;;;;;;;;;;;;6.01;100.00;100384.25;5072457;28;20023;-79
2022/03/24 02:42:03;;;;;;;;;;;;;;;5.86;100.00;100387.03;5073723;28;20059;-79
2022/03/24 02:44:31;;;;;;;;;;;;;;;5.80;100.00;100389.22;5072649;28;20000;-79
2022/03/24 02:47:03;;;;;;;;;;;;;;;5.75;100.00;100386.75;5073659;28;20371;-79
2022/03/24 02:49:31;;;;;;;;;;;;;;;5.85;100.00;100382.63;5073588;28;19924;-79
2022/03/24 02:51:59;;;;;;;;;;;;;;;5.91;100.00;100386.78;5073124;28;19925;-79
2022/03/24 02:54:27;;;;;;;;;;;;;;;5.84;100.00;100378.25;5072309;28;19924;-79
2022/03/24 02:56:54;;;;;;;;;;;;;;;5.50;100.00;100375.06;5073506;28;19925;-79
2022/03/24 02:59:22;;;;;;;;;;;;;;;5.41;100.00;100377.19;5072419;28;19924;-79
2022/03/24 03:01:54;;;;;;;;;;;;;;;5.25;100.00;100387.50;5072328;28;19932;-79
2022/03/24 03:04:21;;;;;;;;;;;;;;;5.48;100.00;100385.69;5072302;28;20376;-79
2022/03/24 03:06:48;;;;;;;;;;;;;;;5.60;100.00;100379.25;5073205;28;20307;-79
2022/03/24 03:09:17;;;;;;;;;;;;;;;5.67;100.00;100384.16;5055510;28;20364;-79
2022/03/24 03:11:45;;;;;;;;;;;;;;;5.68;100.00;100383.00;5073355;28;19925;-79
2022/03/24 03:14:17;;;;;;;;;;;;;;;5.72;100.00;100375.56;5073224;28;20264;-79
2022/03/24 03:16:45;;;;;;;;;;;;;;;5.67;100.00;100376.66;5073528;28;19928;-79
2022/03/24 03:19:17;;;;;;;;;;;;;;;5.41;100.00;100377.19;5073374;28;19925;-79
2022/03/24 03:21:46;;;;;;;;;;;;;;;4.57;100.00;100374.13;5073246;28;19925;-79
2022/03/24 03:24:13;;;;;;;;;;;;;;;4.43;100.00;100376.47;5073284;28;19967;-79
2022/03/24 03:26:40;;;;;;;;;;;;;;;4.90;100.00;100372.69;5073350;28;20054;-79
2022/03/24 03:29:08;;;;;;;;;;;;;;;5.20;100.00;100371.13;5072149;28;20379;-79
2022/03/24 03:31:35;;;;;;;;;;;;;;;5.21;100.00;100378.25;5073372;28;20356;-79
2022/03/24 03:34:07;;;;;;;;;;;;;;;5.27;100.00;100374.06;5073382;28;20027;-79
2022/03/24 03:36:35;;;;;;;;;;;;;;;5.24;100.00;100366.47;5087532;28;19931;-79
2022/03/24 03:39:02;;;;;;;;;;;;;;;5.10;100.00;100363.31;5094746;28;19924;-79
2022/03/24 03:41:29;;;;;;;;;;;;;;;4.99;100.00;100366.97;5095955;28;19946;-79
2022/03/24 03:43:58;;;;;;;;;;;;;;;5.09;100.00;100364.47;5095453;28;19945;-79
2022/03/24 03:46:25;;;;;;;;;;;;;;;5.29;100.00;100363.44;5078792;28;19924;-79
2022/03/24 03:48:53;;;;;;;;;;;;;;;5.24;100.00;100368.44;5096289;28;20015;-79
2022/03/24 03:51:20;;;;;;;;;;;;;;;5.07;100.00;100371.56;5096644;28;20038;-80
2022/03/24 03:53:47;;;;;;;;;;;;;;;5.12;100.00;100369.31;5093771;28;19950;-79
2022/03/24 03:56:14;;;;;;;;;;;;;;;5.34;100.00;100374.25;5088677;28;19970;-79
2022/03/24 03:58:41;;;;;;;;;;;;;;;5.39;100.00;100373.97;5079040;28;19934;-79
2022/03/24 04:01:09;;;;;;;;;;;;;;;5.26;100.00;100364.16;5096680;28;20011;-79
2022/03/24 04:03:38;;;;;;;;;;;;;;;5.18;100.00;100367.88;5096570;28;20078;-79
2022/03/24 04:06:06;;;;;;;;;;;;;;;5.10;100.00;100359.75;5095352;28;19924;-79
2022/03/24 04:08:33;;;;;;;;;;;;;;;5.16;100.00;100364.69;5096655;28;19930;-79
2022/03/24 04:11:01;;;;;;;;;;;;;;;5.21;100.00;100360.84;5096655;28;20013;-79
2022/03/24 04:13:29;;;;;;;;;;;;;;;5.09;100.00;100358.94;5095548;28;19925;-79
2022/03/24 04:15:56;;;;;;;;;;;;;;;5.14;100.00;100361.47;5078591;28;19924;-79
2022/03/24 04:18:24;;;;;;;;;;;;;;;5.24;100.00;100366.47;5094830;28;20015;-79
2022/03/24 04:20:51;;;;;;;;;;;;;;;5.25;100.00;100359.78;5096337;28;19931;-79
2022/03/24 04:23:21;;;;;;;;;;;;;;;5.19;100.00;100358.44;5096605;28;20019;-79
2022/03/24 04:25:48;;;;;;;;;;;;;;;5.10;100.00;100362.53;5096444;28;19971;-78
2022/03/24 04:28:15;;;;;;;;;;;;;;;4.97;100.00;100372.06;5095059;28;19931;-79
2022/03/24 04:30:45;;;;;;;;;;;;;;;4.92;100.00;100362.03;5095072;28;19924;-79
2022/03/24 04:33:13;;;;;;;;;;;;;;;4.94;100.00;100368.03;5094621;28;20022;-79
2022/03/24 04:35:42;;;;;;;;;;;;;;;4.99;100.00;100359.47;5096257;28;19928;-79
2022/03/24 04:38:09;;;;;;;;;;;;;;;5.11;100.00;100370.47;5096194;28;19931;-79
2022/03/24 04:40:36;;;;;;;;;;;;;;;5.17;100.00;100362.69;5096290;28;19928;-79
2022/03/24 04:43:04;;;;;;;;;;;;;;;5.22;100.00;100357.72;5096051;28;19924;-79
2022/03/24 04:45:33;;;;;;;;;;;;;;;5.20;100.00;100362.81;5094770;28;19924;-79
2022/03/24 04:48:01;;;;;;;;;;;;;;;5.18;100.00;100362.34;5094601;28;19947;-79
2022/03/24 04:50:29;;;;;;;;;;;;;;;5.16;100.00;100356.38;5095818;28;19931;-79
2022/03/24 04:52:57;;;;;;;;;;;;;;;5.12;100.00;100361.00;5094526;28;20362;-78
2022/03/24 04:55:24;;;;;;;;;;;;;;;5.11;100.00;100356.63;5095871;28;19931;-79
2022/03/24 04:57:51;;;;;;;;;;;;;;;5.06;100.00;100354.13;5094840;28;19928;-79
2022/03/24 05:00:19;;;;;;;;;;;;;;;5.05;100.00;100354.47;5095913;28;19931;-79
2022/03/24 05:02:49;;;;;;;;;;;;;;;5.04;100.00;100361.97;5077286;28;19924;-79
2022/03/24 05:05:16;;;;;;;;;;;;;;;4.99;100.00;100356.72;5095904;28;19924;-79
2022/03/24 05:07:43;;;;;;;;;;;;;;;5.00;100.00;100361.06;5094677;28;20027;-78
2022/03/24 05:10:11;;;;;;;;;;;;;;;4.58;100.00;100356.34;5094401;28;19990;-79
2022/03/24 05:12:39;;;;;;;;;;;;;;;4.57;100.00;100368.56;5095670;28;19924;-78
2022/03/24 05:15:08;;;;;;;;;;;;;;;4.77;100.00;100365.59;5094422;28;19924;-79
2022/03/24 05:17:36;;;;;;;;;;;;;;;4.95;100.00;100364.09;5095153;28;19924;-79
2022/03/24 05:20:03;;;;;;;;;;;;;;;4.99;100.00;100362.25;5095509;28;20049;-79
2022/03/24 05:22:30;;;;;;;;;;;;;;;4.91;100.00;100359.63;5094278;28;20011;-79
2022/03/24 05:24:57;;;;;;;;;;;;;;;4.88;100.00;100350.06;5077435;28;19924;-79
2022/03/24 05:27:25;;;;;;;;;;;;;;;4.85;100.00;100353.56;5094127;28;19928;-79
2022/03/24 05:29:52;;;;;;;;;;;;;;;4.77;100.00;100357.28;5093950;28;19924;-79
2022/03/24 05:32:23;;;;;;;;;;;;;;;4.78;100.00;100358.09;5095171;28;19930;-79
2022/03/24 05:34:51;;;;;;;;;;;;;;;4.83;100.00;100358.63;5095311;28;19924;-79
2022/03/24 05:37:18;;;;;;;;;;;;;;;4.81;100.00;100369.28;5093928;28;19924;-79
2022/03/24 05:39:45;;;;;;;;;;;;;;;4.80;100.00;100370.41;5091619;28;19924;-79
2022/03/24 05:42:12;;;;;;;;;;;;;;;4.65;100.00;100370.41;5093511;28;19931;-79
2022/03/24 05:44:39;;;;;;;;;;;;;;;4.65;100.00;100376.72;5076603;28;19924;-78
2022/03/24 05:47:07;;;;;;;;;;;;;;;4.83;100.00;100378.00;5094976;28;19924;-79
2022/03/24 05:49:34;;;;;;;;;;;;;;;4.67;100.00;100373.59;5095040;28;19924;-79
2022/03/24 05:52:22;;;;;;;;;;;;;;;4.21;100.00;100372.25;5093394;28;19928;-78
2022/03/24 05:54:49;;;;;;;;;;;;;;;3.99;100.00;100370.00;5076416;28;20325;-79
2022/03/24 05:57:16;;;;;;;;;;;;;;;4.37;100.00;100369.56;5083603;28;19951;-79
2022/03/24 05:59:43;;;;;;;;;;;;;;;4.49;100.00;100373.09;5072958;28;19974;-82
2022/03/24 06:02:13;;;;;;;;;;;;;;;4.50;100.00;100371.94;5056338;28;19960;-79
2022/03/24 06:04:42;;;;;;;;;;;;;;;4.37;100.00;100367.63;5074426;28;19928;-79
2022/03/24 06:07:10;;;;;;;;;;;;;;;4.41;100.00;100368.50;5074312;28;19989;-79
2022/03/24 06:09:37;;;;;;;;;;;;;;;4.41;100.00;100371.28;5073036;28;19928;-79
2022/03/24 06:12:06;;;;;;;;;;;;;;;4.55;100.00;100376.41;5074508;28;19963;-79
2022/03/24 06:14:34;;;;;;;;;;;;;;;4.62;100.00;100371.88;5073967;28;19935;-79
2022/03/24 06:17:01;;;;;;;;;;;;;;;4.70;100.00;100368.16;5074191;28;19932;-79
2022/03/24 06:19:28;;;;;;;;;;;;;;;4.72;100.00;100370.59;5074135;28;19969;-80
2022/03/24 06:21:56;;;;;;;;;;;;;;;4.81;100.00;100372.03;5072985;28;19952;-79
2022/03/24 06:24:23;;;;;;;;;;;;;;;4.81;100.00;100369.28;5074155;28;19929;-79
2022/03/24 06:26:50;;;;;;;;;;;;;;;4.75;100.00;100376.22;5072952;28;20023;-79
2022/03/24 06:29:19;;;;;;;;;;;;;;;4.78;100.00;100378.28;5073739;28;19931;-79
2022/03/24 06:31:46;;;;;;;;;;;;;;;4.73;100.00;100378.53;5073890;28;19924;-79
2022/03/24 06:34:13;;;;;;;;;;;;;;;4.39;100.00;100381.88;5074074;28;19928;-80
2022/03/24 06:36:41;;;;;;;;;;;;;;;4.30;100.00;100384.00;5040385;28;19924;-80
2022/03/24 06:39:08;;;;;;;;;;;;;;;4.51;100.00;100386.59;5074134;28;19963;-80
2022/03/24 06:41:36;;;;;;;;;;;;;;;4.08;100.00;100392.81;5082377;28;19924;-78
2022/03/24 06:44:06;;;;;;;;;;;;;;;3.81;100.00;100396.31;5093724;28;19946;-78
2022/03/24 06:46:34;;;;;;;;;;;;;;;4.28;100.00;100391.84;5092779;28;19924;-80
2022/03/24 06:49:03;;;;;;;;;;;;;;;4.70;100.00;100392.28;5092774;28;19956;-76
2022/03/24 06:51:30;;;;;;;;;;;;;;;4.80;100.00;100397.31;5089994;28;20391;-77
2022/03/24 06:53:57;;;;;;;;;;;;;;;4.82;100.00;100395.00;5068399;28;19924;-77
2022/03/24 06:56:25;;;;;;;;;;;;;;;4.89;100.00;100398.75;5073485;28;19931;-77
2022/03/24 06:58:52;;;;;;;;;;;;;;;5.22;100.00;100396.50;5086230;28;19928;-78
2022/03/24 07:01:20;;;;;;;;;;;;;;;5.71;100.00;100402.47;5070495;28;19987;-78
2022/03/24 07:03:47;;;;;;;;;;;;;;;5.91;100.00;100400.66;5069748;28;20372;-78
2022/03/24 07:06:14;;;;;;;;;;;;;;;6.12;100.00;100401.13;5073548;28;19924;-79
2022/03/24 07:08:41;;;;;;;;;;;;;;;6.49;100.00;100394.00;5087262;28;19924;-80
2022/03/24 07:11:08;;;;;;;;;;;;;;;6.73;100.00;100393.72;5089787;28;19924;-78
2022/03/24 07:13:36;;;;;;;;;;;;;;;6.93;100.00;100387.00;5085692;28;20104;-79
2022/03/24 07:16:05;;;;;;;;;;;;;;;6.96;100.00;100389.03;5076815;28;19924;-78
2022/03/24 07:18:32;;;;;;;;;;;;;;;6.80;100.00;100394.66;5093799;28;20394;-79
2022/03/24 07:20:59;;;;;;;;;;;;;;;6.61;100.00;100396.66;5094287;28;19969;-79
2022/03/24 07:23:26;;;;;;;;;;;;;;;7.02;100.00;100390.34;5093995;28;19948;-79
2022/03/24 07:25:53;;;;;;;;;;;;;;;7.59;100.00;100401.31;5075609;28;19990;-79
2022/03/24 07:28:21;;;;;;;;;;;;;;;7.87;100.00;100396.22;5094136;28;20007;-79
2022/03/24 07:30:50;;;;;;;;;;;;;;;8.24;100.00;100391.63;5092690;28;19928;-78
2022/03/24 07:33:19;;;;;;;;;;;;;;;8.65;100.00;100390.59;5076333;28;19924;-78
2022/03/24 07:35:47;;;;;;;;;;;;;;;9.02;100.00;100387.84;5089735;28;19924;-78
2022/03/24 07:38:15;;;;;;;;;;;;;;;9.39;100.00;100387.84;5080092;28;19925;-78
2022/03/24 07:40:46;;;;;;;;;;;;;;;9.82;100.00;100387.84;5076336;28;20372;-79
2022/03/24 07:43:15;;;;;;;;;;;;;;;10.08;100.00;100389.66;5076835;28;19959;-75
2022/03/24 07:45:42;;;;;;;;;;;;;;;10.45;100.00;100388.28;5087569;28;19928;-76
2022/03/24 07:48:13;;;;;;;;;;;;;;;10.72;100.00;100391.63;5094636;28;19932;-76
2022/03/24 07:50:42;;;;;;;;;;;;;;;10.97;100.00;100392.50;5090316;28;19928;-82
2022/03/24 07:53:22;;;;;;;;;;;;;;;11.09;100.00;100394.16;5092822;28;19924;-83
2022/03/24 07:55:52;;;;;;;;;;;;;;;11.30;100.00;100395.00;5093697;28;20014;-83
2022/03/24 07:58:21;;;;;;;;;;;;;;;11.46;100.00;100391.81;5075620;28;19924;-83
2022/03/24 08:00:48;;;;;;;;;;;;;;;11.65;100.00;100392.28;5093604;28;19981;-83
2022/03/24 08:03:17;;;;;;;;;;;;;;;11.87;100.00;100391.09;5095869;28;20393;-80
2022/03/24 08:05:45;;;;;;;;;;;;;;;12.13;100.00;100396.25;5096851;28;19969;-80
2022/03/24 08:08:14;;;;;;;;;;;;;;;12.34;100.00;100392.63;5078263;28;20252;-80
2022/03/24 08:10:43;;;;;;;;;;;;;;;12.65;100.00;100392.53;5075052;28;19924;-80
2022/03/24 08:13:13;;;;;;;;;;;;;;;13.01;100.00;100403.66;5075284;28;19925;-80
2022/03/24 08:15:41;;;;;;;;;;;;;;;13.33;100.00;100390.25;5087153;28;19924;-80
2022/03/24 08:18:10;;;;;;;;;;;;;;;13.54;100.00;100398.53;5062730;28;20037;-80
2022/03/24 08:20:37;;;;;;;;;;;;;;;13.60;100.00;100391.28;5075227;28;19971;-80
2022/03/24 08:23:05;;;;;;;;;;;;;;;13.45;100.00;100389.78;5076312;28;20334;-80
2022/03/24 08:25:33;;;;;;;;;;;;;;;13.27;100.00;100394.72;5075053;28;19928;-79
2022/03/24 08:28:00;;;;;;;;;;;;;;;13.02;100.00;100394.84;5074773;28;19932;-82
2022/03/24 08:30:28;;;;;;;;;;;;;;;13.02;100.00;100399.63;5041844;28;20011;-81
2022/03/24 08:32:55;;;;;;;;;;;;;;;13.16;100.00;100394.75;5075273;28;19925;-86
2022/03/24 08:35:23;;;;;;;;;;;;;;;13.83;100.00;100389.47;5075083;28;19932;-83
2022/03/24 08:37:50;;;;;;;;;;;;;;;14.28;100.00;100393.91;5071674;28;19924;-85
2022/03/24 08:40:17;;;;;;;;;;;;;;;14.66;100.00;100389.06;5042539;28;19925;-84
2022/03/24 08:42:44;;;;;;;;;;;;;;;15.15;100.00;100382.84;5061753;28;19955;-84
2022/03/24 08:45:13;;;;;;;;;;;;;;;15.42;100.00;100377.28;5059024;28;19924;-85
2022/03/24 08:47:40;;;;;;;;;;;;;;;15.69;100.00;100387.28;5077710;28;19924;-85
2022/03/24 08:50:10;;;;;;;;;;;;;;;15.93;100.00;100385.31;5045842;28;20395;-86
2022/03/24 08:52:37;;;;;;;;;;;;;;;16.20;100.00;100384.03;5077733;28;19924;-86
2022/03/24 08:55:11;;;;;;;;;;;;;;;16.23;100.00;100382.34;5076750;28;19924;-86
2022/03/24 08:57:38;;;;;;;;;;;;;;;16.18;100.00;100380.81;5094130;28;19946;-86
2022/03/24 09:00:12;;;;;;;;;;;;;;;16.23;100.00;100376.72;5090397;28;19928;-86
2022/03/24 09:02:41;;;;;;;;;;;;;;;16.46;100.00;100381.56;5058740;28;20449;-85
2022/03/24 09:05:08;;;;;;;;;;;;;;;16.71;100.00;100390.31;5052148;28;20023;-85
2022/03/24 09:07:36;;;;;;;;;;;;;;;16.89;100.00;100383.09;5075219;28;19925;-86
2022/03/24 09:10:06;;;;;;;;;;;;;;;16.97;100.00;100378.09;5056331;28;20428;-85
2022/03/24 09:12:35;;;;;;;;;;;;;;;17.01;100.00;100381.66;5094327;28;20023;-85
2022/03/24 09:15:05;;;;;;;;;;;;;;;16.97;100.00;100375.28;5094345;28;19958;-85
2022/03/24 09:17:32;;;;;;;;;;;;;;;17.22;100.00;100384.81;5077772;28;19963;-85
2022/03/24 09:20:00;;;;;;;;;;;;;;;17.32;100.00;100382.97;5094279;28;19931;-85
2022/03/24 09:22:27;;;;;;;;;;;;;;;17.28;100.00;100383.06;5060808;28;20298;-85
2022/03/24 09:24:54;;;;;;;;;;;;;;;17.21;100.00;100380.41;5077716;28;20395;-85
2022/03/24 09:27:22;;;;;;;;;;;;;;;17.09;100.00;100372.59;5077789;28;19924;-85
2022/03/24 09:29:52;;;;;;;;;;;;;;;16.91;100.00;100379.84;5077361;28;20288;-85
2022/03/24 09:32:19;;;;;;;;;;;;;;;17.11;100.00;100378.59;5075691;28;20003;-84
2022/03/24 09:34:46;;;;;;;;;;;;;;;17.31;100.00;100384.22;5092518;28;19927;-84
2022/03/24 09:37:17;;;;;;;;;;;;;;;17.40;100.00;100381.59;5091174;28;19924;-84
2022/03/24 09:39:45;;;;;;;;;;;;;;;17.44;100.00;100366.19;5093963;28;19949;-85
2022/03/24 09:42:12;;;;;;;;;;;;;;;17.51;100.00;100377.31;5064300;28;19932;-85
2022/03/24 09:44:41;;;;;;;;;;;;;;;17.58;100.00;100379.19;5040490;28;20334;-84
2022/03/24 09:47:09;;;;;;;;;;;;;;;17.62;100.00;100379.88;5058369;28;19925;-83
2022/03/24 09:49:37;;;;;;;;;;;;;;;17.42;100.00;100367.81;5093374;28;20375;-83
2022/03/24 09:52:04;;;;;;;;;;;;;;;17.06;100.00;100378.31;5074978;28;20289;-83
2022/03/24 09:54:32;;;;;;;;;;;;;;;17.52;100.00;100378.13;5095006;28;19924;-83
2022/03/24 09:57:05;;;;;;;;;;;;;;;17.68;100.00;100375.28;5078004;28;19928;-83
2022/03/24 09:59:32;;;;;;;;;;;;;;;17.47;100.00;100372.97;5056945;28;19925;-83
2022/03/24 10:02:01;;;;;;;;;;;;;;;17.69;100.00;100369.22;5090719;28;19992;-84
2022/03/24 10:04:49;;;;;;;;;;;;;;;17.21;100.00;100373.94;5108807;28;20007;-83
2022/03/24 10:07:25;;;;;;;;;;;;;;;17.67;100.00;100373.72;5039520;28;20041;-83
2022/03/24 10:09:55;;;;;;;;;;;;;;;17.71;100.00;100380.88;5074465;28;20375;-84
2022/03/24 10:12:42;;;;;;;;;;;;;;;17.55;100.00;100382.88;5067972;28;19974;-84
2022/03/24 10:15:11;;;;;;;;;;;;;;;17.81;100.00;100373.38;5040118;28;20280;-84
2022/03/24 10:17:41;;;;;;;;;;;;;;;17.65;100.00;100373.34;5090615;28;19969;-84
2022/03/24 10:20:14;;;;;;;;;;;;;;;17.81;100.00;100374.16;5094215;28;19924;-84
2022/03/24 10:22:59;;;;;;;;;;;;;;;17.98;100.00;100369.28;5091577;28;19924;-83
2022/03/24 10:25:31;;;;;;;;;;;;;;;18.05;100.00;100371.97;5076693;28;19970;-83
2022/03/24 10:28:17;;;;;;;;;;;;;;;18.11;100.00;100372.22;5076668;28;19970;-84
2022/03/24 10:30:45;;;;;;;;;;;;;;;18.27;100.00;100367.31;5094678;28;19955;-84
2022/03/24 10:33:33;;;;;;;;;;;;;;;18.14;100.00;100372.13;5059924;28;20346;-84
2022/03/24 10:36:23;;;;;;;;;;;;;;;18.00;100.00;100375.31;5073835;28;19928;-84
2022/03/24 10:38:52;;;;;;;;;;;;;;;18.52;100.00;100372.34;5040009;28;19924;-84
2022/03/24 10:41:24;;;;;;;;;;;;;;;18.64;100.00;100360.28;5073980;28;19924;-84
2022/03/24 10:43:53;;;;;;;;;;;;;;;18.47;100.00;100353.88;5091442;28;20012;-84
2022/03/24 10:46:22;;;;;;;;;;;;;;;18.72;100.00;100359.63;5075925;28;20286;-84
2022/03/24 10:48:50;;;;;;;;;;;;;;;18.69;100.00;100359.75;5059525;28;19947;-83
2022/03/24 10:51:35;;;;;;;;;;;;;;;18.78;100.00;100357.81;5075978;28;19977;-83
2022/03/24 10:54:23;;;;;;;;;;;;;;;17.87;100.00;100349.00;5091434;28;19924;-84
2022/03/24 10:57:03;;;;;;;;;;;;;;;18.35;100.00;100351.75;5085269;28;19924;-84
2022/03/24 10:59:33;;;;;;;;;;;;;;;18.78;100.00;100349.34;5076255;28;19924;-84
2022/03/24 11:02:00;;;;;;;;;;;;;;;18.29;100.00;100347.06;5092944;28;19924;-83
2022/03/24 11:04:27;;;;;;;;;;;;;;;19.32;100.00;100338.03;5075995;28;19924;-88
2022/03/24 11:06:55;;;;;;;;;;;;;;;19.04;100.00;100336.81;5093925;28;20009;-85
2022/03/24 11:09:23;;;;;;;;;;;;;;;19.70;100.00;100338.81;5059217;28;19971;-86
2022/03/24 11:12:09;;;;;;;;;;;;;;;19.85;100.00;100334.28;5075730;28;20011;-86
2022/03/24 11:14:39;;;;;;;;;;;;;;;20.09;100.00;100340.34;5091767;28;19928;-86
2022/03/24 11:17:07;;;;;;;;;;;;;;;20.41;100.00;100334.38;5093831;28;19954;-86
2022/03/24 11:19:38;;;;;;;;;;;;;;;20.56;100.00;100327.72;5091527;28;19938;-87
2022/03/24 11:22:10;;;;;;;;;;;;;;;20.88;99.57;100330.16;5092847;28;19924;-86
2022/03/24 11:24:37;;;;;;;;;;;;;;;20.87;100.00;100333.47;5092513;28;19928;-86
2022/03/24 11:27:06;;;;;;;;;;;;;;;20.38;99.56;100324.72;5058901;28;19994;-86
2022/03/24 11:29:33;;;;;;;;;;;;;;;20.25;99.21;100329.66;5093670;28;19977;-86
2022/03/24 11:32:00;;;;;;;;;;;;;;;19.72;97.92;100327.03;5075772;28;20390;-86
2022/03/24 11:34:27;;;;;;;;;;;;;;;19.69;97.48;100323.84;5092192;28;19924;-86
2022/03/24 11:36:56;;;;;;;;;;;;;;;19.15;95.53;100322.34;5074714;28;19928;-86
2022/03/24 11:39:24;;;;;;;;;;;;;;;18.96;96.40;100335.44;5059005;28;19973;-86
2022/03/24 11:41:52;;;;;;;;;;;;;;;19.08;96.18;100322.56;5056684;28;19924;-86
2022/03/24 11:44:29;;;;;;;;;;;;;;;19.24;96.64;100319.63;5088937;28;20364;-86
2022/03/24 11:46:59;;;;;;;;;;;;;;;19.45;94.31;100311.28;5091845;28;20302;-87
2022/03/24 11:49:27;;;;;;;;;;;;;;;19.69;96.36;100317.38;5071777;28;19924;-86
2022/03/24 11:51:58;;;;;;;;;;;;;;;19.40;94.28;100314.66;5041126;28;20366;-86
2022/03/24 11:54:32;;;;;;;;;;;;;;;19.45;94.22;100316.16;5069159;28;19935;-86
2022/03/24 11:57:25;;;;;;;;;;;;;;;19.19;91.90;100312.47;5042192;28;19931;-86
2022/03/24 12:00:11;;;;;;;;;;;;;;;19.32;89.69;100306.84;5063122;28;19924;-86
2022/03/24 12:02:39;;;;;;;;;;;;;;;19.73;93.33;100300.25;5078709;28;19924;-86
2022/03/24 12:05:06;;;;;;;;;;;;;;;18.98;95.17;100310.31;5078947;28;19924;-86
2022/03/24 12:07:35;;;;;;;;;;;;;;;18.86;94.96;100316.75;5076934;28;20030;-86
2022/03/24 12:10:04;;;;;;;;;;;;;;;18.84;95.06;100312.78;5079079;28;19981;-86
2022/03/24 12:12:33;;;;;;;;;;;;;;;19.31;95.81;100316.63;5077795;28;19924;-85
2022/03/24 12:15:11;;;;;;;;;;;;;;;19.24;96.25;100311.13;5095660;28;19928;-85
2022/03/24 12:17:59;;;;;;;;;;;;;;;19.72;97.83;100307.19;5077953;28;20010;-86
2022/03/24 12:20:26;;;;;;;;;;;;;;;19.41;91.16;100295.63;5084730;28;19932;-86
2022/03/24 12:22:58;;;;;;;;;;;;;;;19.21;95.86;100310.00;5090698;28;19924;-85
2022/03/24 12:25:26;;;;;;;;;;;;;;;19.41;95.21;100313.44;5095503;28;19928;-85
2022/03/24 12:28:15;;;;;;;;;;;;;;;19.68;95.84;100304.44;5061874;28;19964;-85
2022/03/24 12:30:52;;;;;;;;;;;;;;;19.48;100.00;100307.53;5082057;28;19960;-86
2022/03/24 12:33:40;;;;;;;;;;;;;;;19.36;100.00;100311.16;5058565;28;19924;-84
2022/03/24 12:36:13;;;;;;;;;;;;;;;19.66;100.00;100310.56;5074851;28;19925;-86
2022/03/24 12:38:41;;;;;;;;;;;;;;;19.75;98.67;100306.25;5058374;28;19928;-85
2022/03/24 12:41:15;;;;;;;;;;;;;;;19.30;100.00;100317.84;5041805;28;20311;-86
2022/03/24 12:43:59;;;;;;;;;;;;;;;18.64;100.00;100317.81;5077628;28;20366;-85